Time;durP1;ratioP1;P1;durP2;ratioP2;P2;SDS_P1;SDS_P2;PMS_P1;PMS_P2;Temp;Humidity;BMP_temperature;BMP_pressure;BME280_temperature;BME280_humidity;BME280_pressure;Samples;Min_cycle;Max_cycle;Signal;HPM_P1;HPM_P2
2021/11/28 00:01:11;;;;;;;;;0.00;0.00;;;;;;;;5023404;28;11500;-78
2021/11/28 00:03:39;;;;;;;;;4.00;2.00;;;;;;;;5025738;28;11482;-77
2021/11/28 00:06:12;;;;;;;;;0.00;0.00;;;;;;;;5042320;28;12484;-75
2021/11/28 00:11:26;;;;;;;;;0.00;0.00;;;;;;;;5041432;28;11552;-79
2021/11/28 00:14:05;;;;;;;;;4.00;1.00;;;;;;;;5042374;28;11488;-76
2021/11/28 00:16:33;;;;;;;;;7.00;4.25;;;;;;;;5040544;28;12887;-79
2021/11/28 00:19:01;;;;;;;;;1.00;1.00;;;;;;;;5049887;28;11585;-79
2021/11/28 00:21:28;;;;;;;;;1.75;1.75;;;;;;;;5051043;28;11575;-77
2021/11/28 00:23:57;;;;;;;;;1.00;1.00;;;;;;;;5036229;28;11501;-76
2021/11/28 00:26:25;;;;;;;;;1.50;1.00;;;;;;;;5035826;28;11489;-80
2021/11/28 00:28:52;;;;;;;;;1.00;1.00;;;;;;;;5019081;28;11539;-81
2021/11/28 00:31:20;;;;;;;;;4.50;0.75;;;;;;;;5043349;28;11490;-78
2021/11/28 00:33:47;;;;;;;;;3.50;1.00;;;;;;;;5036739;28;11506;-81
2021/11/28 00:36:14;;;;;;;;;0.50;0.50;;;;;;;;5044404;28;12325;-78
2021/11/28 00:38:42;;;;;;;;;1.00;1.00;;;;;;;;5030214;28;11521;-80
2021/11/28 00:41:11;;;;;;;;;0.00;0.00;;;;;;;;5035673;28;11478;-79
2021/11/28 00:43:39;;;;;;;;;1.00;1.00;;;;;;;;5038556;28;11636;-76
2021/11/28 00:46:06;;;;;;;;;1.00;1.00;;;;;;;;5019380;28;11516;-79
2021/11/28 00:48:36;;;;;;;;;0.00;0.00;;;;;;;;5034608;28;11486;-78
2021/11/28 00:51:34;;;;;;;;;2.00;2.00;;;;;;;;5041221;28;11455;-80
2021/11/28 00:54:01;;;;;;;;;0.00;0.00;;;;;;;;5039517;28;11477;-80
2021/11/28 00:56:30;;;;;;;;;0.75;0.75;;;;;;;;5049535;28;11511;-76
2021/11/28 00:58:57;;;;;;;;;0.00;0.00;;;;;;;;5042470;28;11513;-79
2021/11/28 01:01:26;;;;;;;;;4.75;1.00;;;;;;;;5022856;28;12058;-80
2021/11/28 01:03:54;;;;;;;;;0.75;0.00;;;;;;;;5049884;28;11491;-79
2021/11/28 01:06:21;;;;;;;;;1.00;1.00;;;;;;;;5044984;28;11501;-77
2021/11/28 01:08:48;;;;;;;;;1.00;1.00;;;;;;;;5042511;28;11469;-80
2021/11/28 01:11:16;;;;;;;;;1.50;0.00;;;;;;;;5044329;28;11515;-80
2021/11/28 01:13:45;;;;;;;;;3.00;1.00;;;;;;;;5040647;28;11470;-79
2021/11/28 01:16:12;;;;;;;;;2.00;2.00;;;;;;;;5044455;28;11568;-80
2021/11/28 01:18:39;;;;;;;;;1.00;1.00;;;;;;;;5042926;28;11576;-79
2021/11/28 01:21:07;;;;;;;;;0.50;0.50;;;;;;;;5025107;28;11505;-81
2021/11/28 01:23:34;;;;;;;;;4.00;0.75;;;;;;;;5040400;28;11568;-78
2021/11/28 01:26:02;;;;;;;;;1.00;1.00;;;;;;;;5042490;28;11454;-80
2021/11/28 01:28:29;;;;;;;;;1.75;1.75;;;;;;;;5023742;28;11547;-79
2021/11/28 01:30:58;;;;;;;;;4.50;2.00;;;;;;;;5044789;28;11578;-80
2021/11/28 01:33:26;;;;;;;;;1.75;1.00;;;;;;;;5040603;28;11494;-76
2021/11/28 01:35:53;;;;;;;;;1.00;1.00;;;;;;;;5046652;28;11644;-78
2021/11/28 01:38:20;;;;;;;;;1.00;1.00;;;;;;;;5042745;28;12292;-80
2021/11/28 01:40:48;;;;;;;;;4.00;1.75;;;;;;;;5041435;28;11669;-80
2021/11/28 01:43:19;;;;;;;;;1.25;1.25;;;;;;;;5041512;28;11489;-80
2021/11/28 01:45:49;;;;;;;;;1.00;1.00;;;;;;;;5040424;28;11530;-78
2021/11/28 01:48:20;;;;;;;;;2.00;2.00;;;;;;;;5041199;28;12305;-80
2021/11/28 01:50:49;;;;;;;;;0.00;0.00;;;;;;;;5045717;28;11506;-80
2021/11/28 01:53:19;;;;;;;;;1.00;1.00;;;;;;;;5042215;28;11611;-76
2021/11/28 01:55:47;;;;;;;;;1.00;1.00;;;;;;;;5038312;28;11626;-80
2021/11/28 01:58:15;;;;;;;;;1.00;1.00;;;;;;;;5036212;28;11624;-80
2021/11/28 02:00:46;;;;;;;;;2.50;1.00;;;;;;;;5039230;28;11457;-80
2021/11/28 02:03:15;;;;;;;;;1.00;1.00;;;;;;;;5032288;28;11580;-80
2021/11/28 02:05:47;;;;;;;;;1.00;1.00;;;;;;;;5024160;28;11567;-81
2021/11/28 02:08:14;;;;;;;;;1.00;1.00;;;;;;;;5041010;28;11556;-76
2021/11/28 02:10:42;;;;;;;;;5.00;2.00;;;;;;;;5041790;28;11527;-75
2021/11/28 02:13:10;;;;;;;;;3.50;1.50;;;;;;;;5039944;28;12452;-75
2021/11/28 02:15:37;;;;;;;;;2.25;0.75;;;;;;;;5044786;28;11627;-77
2021/11/28 02:18:05;;;;;;;;;1.25;1.25;;;;;;;;5046346;28;11607;-82
2021/11/28 02:20:33;;;;;;;;;2.00;2.00;;;;;;;;5040205;28;11568;-83
2021/11/28 02:23:02;;;;;;;;;1.50;1.25;;;;;;;;5037534;28;11558;-82
2021/11/28 02:25:30;;;;;;;;;1.00;1.00;;;;;;;;5039848;28;11553;-82
2021/11/28 02:27:58;;;;;;;;;1.00;1.00;;;;;;;;5041402;28;11493;-82
2021/11/28 02:30:26;;;;;;;;;4.00;1.50;;;;;;;;5055333;28;11399;-81
2021/11/28 02:32:56;;;;;;;;;1.75;1.00;;;;;;;;5043815;28;11583;-77
2021/11/28 02:35:24;;;;;;;;;1.75;1.75;;;;;;;;5041461;28;11531;-75
2021/11/28 02:37:51;;;;;;;;;1.50;1.50;;;;;;;;5040297;28;11668;-76
2021/11/28 02:40:23;;;;;;;;;1.00;1.00;;;;;;;;5044386;28;11532;-76
2021/11/28 02:42:52;;;;;;;;;0.75;0.75;;;;;;;;5037118;28;11560;-80
2021/11/28 02:45:22;;;;;;;;;1.00;1.00;;;;;;;;5038360;28;11625;-79
2021/11/28 02:47:50;;;;;;;;;0.00;0.00;;;;;;;;5040443;28;11571;-80
2021/11/28 02:50:19;;;;;;;;;1.00;1.00;;;;;;;;5040031;28;11554;-77
2021/11/28 02:52:52;;;;;;;;;1.25;1.25;;;;;;;;5037288;28;11575;-79
2021/11/28 02:55:22;;;;;;;;;0.00;0.00;;;;;;;;5036204;28;12301;-78
2021/11/28 02:57:52;;;;;;;;;0.25;0.25;;;;;;;;5022383;28;11590;-78
2021/11/28 03:00:20;;;;;;;;;1.25;1.00;;;;;;;;5013111;28;11546;-80
2021/11/28 03:02:48;;;;;;;;;1.00;1.00;;;;;;;;5034021;28;11727;-80
2021/11/28 03:05:15;;;;;;;;;5.00;1.00;;;;;;;;5037810;28;11660;-77
2021/11/28 03:07:43;;;;;;;;;5.00;2.00;;;;;;;;5019351;28;12314;-79
2021/11/28 03:10:32;;;;;;;;;1.75;0.00;;;;;;;;4995409;28;11489;-80
2021/11/28 03:12:59;;;;;;;;;1.00;1.00;;;;;;;;5013647;28;11466;-76
2021/11/28 03:15:27;;;;;;;;;1.00;1.00;;;;;;;;5016785;28;12303;-77
2021/11/28 03:17:54;;;;;;;;;1.00;1.00;;;;;;;;5006488;28;11508;-77
2021/11/28 03:20:22;;;;;;;;;1.00;1.00;;;;;;;;5012681;28;11565;-79
2021/11/28 03:22:51;;;;;;;;;1.00;1.00;;;;;;;;5011851;28;11517;-80
2021/11/28 03:25:19;;;;;;;;;0.00;0.00;;;;;;;;5010104;28;11507;-76
2021/11/28 03:27:49;;;;;;;;;2.00;0.00;;;;;;;;5013544;28;11486;-78
2021/11/28 03:30:17;;;;;;;;;5.00;1.25;;;;;;;;5017770;28;12306;-79
2021/11/28 03:32:45;;;;;;;;;0.50;0.50;;;;;;;;5017141;28;11624;-78
2021/11/28 03:35:13;;;;;;;;;0.00;0.00;;;;;;;;4997785;28;11533;-74
2021/11/28 03:37:40;;;;;;;;;1.00;1.00;;;;;;;;5003657;28;11539;-75
2021/11/28 03:40:10;;;;;;;;;1.00;1.00;;;;;;;;5010669;28;12281;-75
2021/11/28 03:42:37;;;;;;;;;1.75;1.75;;;;;;;;5011132;28;11586;-75
2021/11/28 03:45:09;;;;;;;;;2.00;0.50;;;;;;;;5015805;28;11600;-76
2021/11/28 03:47:38;;;;;;;;;4.00;1.25;;;;;;;;5010751;28;11530;-75
2021/11/28 03:50:07;;;;;;;;;0.75;0.75;;;;;;;;4998655;28;11566;-77
2021/11/28 03:52:34;;;;;;;;;1.00;1.00;;;;;;;;5010462;28;11704;-77
2021/11/28 03:55:02;;;;;;;;;0.75;0.75;;;;;;;;5008228;28;11547;-76
2021/11/28 03:57:29;;;;;;;;;4.25;2.00;;;;;;;;4998276;28;11484;-75
2021/11/28 03:59:56;;;;;;;;;1.00;1.00;;;;;;;;5018324;28;11574;-77
2021/11/28 04:02:25;;;;;;;;;0.50;0.50;;;;;;;;5017741;28;11465;-78
2021/11/28 04:04:53;;;;;;;;;0.50;0.50;;;;;;;;5012106;28;11507;-75
2021/11/28 04:07:20;;;;;;;;;1.00;1.00;;;;;;;;5039620;28;11666;-77
2021/11/28 04:09:47;;;;;;;;;0.75;0.75;;;;;;;;5033914;28;11566;-75
2021/11/28 04:12:17;;;;;;;;;4.00;1.50;;;;;;;;5036378;28;11560;-77
2021/11/28 04:14:45;;;;;;;;;0.25;0.25;;;;;;;;5048811;28;11570;-77
2021/11/28 04:17:12;;;;;;;;;1.00;1.00;;;;;;;;5049179;28;11570;-78
2021/11/28 04:19:41;;;;;;;;;0.00;0.00;;;;;;;;5043965;28;11553;-76
2021/11/28 04:22:08;;;;;;;;;1.00;1.00;;;;;;;;5042228;28;11626;-78
2021/11/28 04:24:36;;;;;;;;;0.00;0.00;;;;;;;;5045033;28;11664;-74
2021/11/28 04:27:03;;;;;;;;;1.00;1.00;;;;;;;;5042963;28;11628;-77
2021/11/28 04:29:31;;;;;;;;;1.00;1.00;;;;;;;;5043707;28;12002;-76
2021/11/28 04:31:58;;;;;;;;;0.25;0.25;;;;;;;;5048863;28;11527;-78
2021/11/28 04:34:26;;;;;;;;;2.00;2.00;;;;;;;;5043173;28;11577;-77
2021/11/28 04:36:54;;;;;;;;;0.50;0.50;;;;;;;;5050365;28;11567;-78
2021/11/28 04:39:22;;;;;;;;;1.50;1.50;;;;;;;;5042575;28;12474;-77
2021/11/28 04:41:49;;;;;;;;;1.00;1.00;;;;;;;;5047598;28;11616;-78
2021/11/28 04:44:16;;;;;;;;;0.50;0.50;;;;;;;;5049653;28;11559;-75
2021/11/28 04:46:43;;;;;;;;;0.50;0.50;;;;;;;;5044090;28;11572;-75
2021/11/28 04:49:11;;;;;;;;;0.00;0.00;;;;;;;;5046556;28;12297;-76
2021/11/28 04:51:39;;;;;;;;;1.00;1.00;;;;;;;;5042553;28;11587;-75
2021/11/28 04:54:08;;;;;;;;;0.50;0.50;;;;;;;;5044971;28;11547;-79
2021/11/28 04:56:35;;;;;;;;;1.00;1.00;;;;;;;;5044033;28;11573;-75
2021/11/28 04:59:03;;;;;;;;;2.00;2.00;;;;;;;;4993605;28;11527;-77
2021/11/28 05:01:31;;;;;;;;;1.50;1.50;;;;;;;;5035862;28;11548;-79
2021/11/28 05:03:59;;;;;;;;;4.25;2.00;;;;;;;;5043042;28;11615;-79
2021/11/28 05:06:26;;;;;;;;;0.00;0.00;;;;;;;;5033415;28;11665;-80
2021/11/28 05:08:54;;;;;;;;;0.00;0.00;;;;;;;;5032253;28;11556;-77
2021/11/28 05:11:23;;;;;;;;;0.00;0.00;;;;;;;;5033498;28;11535;-75
2021/11/28 05:13:50;;;;;;;;;0.00;0.00;;;;;;;;5047330;28;11568;-76
2021/11/28 05:16:18;;;;;;;;;0.00;0.00;;;;;;;;5041482;28;11562;-76
2021/11/28 05:18:45;;;;;;;;;0.00;0.00;;;;;;;;5043458;28;11578;-75
2021/11/28 05:21:13;;;;;;;;;0.50;0.50;;;;;;;;5038661;28;11661;-75
2021/11/28 05:23:40;;;;;;;;;0.00;0.00;;;;;;;;5038701;28;12402;-78
2021/11/28 05:26:08;;;;;;;;;0.00;0.00;;;;;;;;5023857;28;12471;-78
2021/11/28 05:28:36;;;;;;;;;0.00;0.00;;;;;;;;5024137;28;11560;-77
2021/11/28 05:31:04;;;;;;;;;0.25;0.25;;;;;;;;5042034;28;11511;-77
2021/11/28 05:33:31;;;;;;;;;0.00;0.00;;;;;;;;5041312;28;11667;-75
2021/11/28 05:35:58;;;;;;;;;0.00;0.00;;;;;;;;5040997;28;11547;-76
2021/11/28 05:38:26;;;;;;;;;0.00;0.00;;;;;;;;5024857;28;11564;-75
2021/11/28 05:40:53;;;;;;;;;0.00;0.00;;;;;;;;5048083;28;11582;-77
2021/11/28 05:43:20;;;;;;;;;0.50;0.50;;;;;;;;5041257;28;11575;-79
2021/11/28 05:45:49;;;;;;;;;0.00;0.00;;;;;;;;5023603;28;11556;-78
2021/11/28 05:48:17;;;;;;;;;0.00;0.00;;;;;;;;5024258;28;11593;-79
2021/11/28 05:50:44;;;;;;;;;4.00;0.00;;;;;;;;5046801;28;11526;-79
2021/11/28 05:53:15;;;;;;;;;0.00;0.00;;;;;;;;5044316;28;11601;-80
2021/11/28 05:55:42;;;;;;;;;0.00;0.00;;;;;;;;5044601;28;12443;-77
2021/11/28 05:58:10;;;;;;;;;0.00;0.00;;;;;;;;5020254;28;11603;-79
2021/11/28 06:00:37;;;;;;;;;0.00;0.00;;;;;;;;5051200;28;11493;-78
2021/11/28 06:03:06;;;;;;;;;0.75;0.75;;;;;;;;5040576;28;11552;-76
2021/11/28 06:05:33;;;;;;;;;0.00;0.00;;;;;;;;5040161;28;11477;-78
2021/11/28 06:08:01;;;;;;;;;1.50;0.00;;;;;;;;4992304;28;11514;-76
2021/11/28 06:10:28;;;;;;;;;0.00;0.00;;;;;;;;5006812;28;11661;-76
2021/11/28 06:12:55;;;;;;;;;1.00;1.00;;;;;;;;5021198;28;11505;-77
2021/11/28 06:15:23;;;;;;;;;0.75;0.75;;;;;;;;5021668;28;12367;-78
2021/11/28 06:17:50;;;;;;;;;1.25;0.75;;;;;;;;5018213;28;11516;-78
2021/11/28 06:20:19;;;;;;;;;1.00;1.00;;;;;;;;5030435;28;11608;-76
2021/11/28 06:22:46;;;;;;;;;1.00;1.00;;;;;;;;5020041;28;11523;-79
2021/11/28 06:25:14;;;;;;;;;1.00;1.00;;;;;;;;5022790;28;11509;-75
2021/11/28 06:27:41;;;;;;;;;2.00;2.00;;;;;;;;5025004;28;11520;-76
2021/11/28 06:30:11;;;;;;;;;0.00;0.00;;;;;;;;5021615;28;11534;-77
2021/11/28 06:32:38;;;;;;;;;3.25;1.00;;;;;;;;4997576;28;11527;-76
2021/11/28 06:35:06;;;;;;;;;6.50;1.00;;;;;;;;5020223;28;11551;-74
2021/11/28 06:37:35;;;;;;;;;0.00;0.00;;;;;;;;5019307;28;12345;-76
2021/11/28 06:40:02;;;;;;;;;0.00;0.00;;;;;;;;5020657;28;11507;-78
2021/11/28 06:42:30;;;;;;;;;1.50;0.50;;;;;;;;5020771;28;11504;-75
2021/11/28 06:44:57;;;;;;;;;0.00;0.00;;;;;;;;5025420;28;11499;-78
2021/11/28 06:47:24;;;;;;;;;0.00;0.00;;;;;;;;5020763;28;11540;-75
2021/11/28 06:49:52;;;;;;;;;0.00;0.00;;;;;;;;5027070;28;11492;-78
2021/11/28 06:52:19;;;;;;;;;0.00;0.00;;;;;;;;5018170;28;11663;-80
2021/11/28 06:54:48;;;;;;;;;0.00;0.00;;;;;;;;5023414;28;11505;-76
2021/11/28 06:57:15;;;;;;;;;0.00;0.00;;;;;;;;5026961;28;11518;-78
2021/11/28 06:59:43;;;;;;;;;0.00;0.00;;;;;;;;5021928;28;11704;-76
2021/11/28 07:02:10;;;;;;;;;0.75;0.75;;;;;;;;5020660;28;11490;-75
2021/11/28 07:04:39;;;;;;;;;0.00;0.00;;;;;;;;5020493;28;11513;-75
2021/11/28 07:07:07;;;;;;;;;0.00;0.00;;;;;;;;5043011;28;12241;-75
2021/11/28 07:09:34;;;;;;;;;0.00;0.00;;;;;;;;5036537;28;11548;-75
2021/11/28 07:12:03;;;;;;;;;1.00;0.00;;;;;;;;5039440;28;11548;-76
2021/11/28 07:14:30;;;;;;;;;0.00;0.00;;;;;;;;5020159;28;11579;-75
2021/11/28 07:16:58;;;;;;;;;1.00;0.00;;;;;;;;5046796;28;11679;-76
2021/11/28 07:19:25;;;;;;;;;2.00;0.00;;;;;;;;5046741;28;11547;-77
2021/11/28 07:21:54;;;;;;;;;2.50;2.50;;;;;;;;5039949;28;12864;-76
2021/11/28 07:24:22;;;;;;;;;0.00;0.00;;;;;;;;5033321;28;11634;-78
2021/11/28 07:26:49;;;;;;;;;1.00;0.00;;;;;;;;5038527;28;11551;-74
2021/11/28 07:29:18;;;;;;;;;0.50;0.50;;;;;;;;5037287;28;12372;-77
2021/11/28 07:31:47;;;;;;;;;0.00;0.00;;;;;;;;5036965;28;11500;-83
2021/11/28 07:34:14;;;;;;;;;1.00;1.00;;;;;;;;5040272;28;11606;-86
2021/11/28 07:36:42;;;;;;;;;5.50;5.50;;;;;;;;5027824;28;11558;-79
2021/11/28 07:39:14;;;;;;;;;0.00;0.00;;;;;;;;5043162;28;11577;-90
2021/11/28 07:41:41;;;;;;;;;1.75;1.75;;;;;;;;5047476;28;11543;-85
2021/11/28 07:44:09;;;;;;;;;0.00;0.00;;;;;;;;5041162;28;11660;-83
2021/11/28 07:46:37;;;;;;;;;1.00;1.00;;;;;;;;5024784;28;11577;-84
2021/11/28 07:49:05;;;;;;;;;1.00;1.00;;;;;;;;5028770;28;11619;-84
2021/11/28 07:51:33;;;;;;;;;0.00;0.00;;;;;;;;5045165;28;11938;-86
2021/11/28 07:54:01;;;;;;;;;1.00;1.00;;;;;;;;5061014;28;11575;-86
2021/11/28 07:56:29;;;;;;;;;0.00;0.00;;;;;;;;5050924;28;11576;-83
2021/11/28 07:58:56;;;;;;;;;1.00;1.00;;;;;;;;5043139;28;11551;-83
2021/11/28 08:01:24;;;;;;;;;0.00;0.00;;;;;;;;5045656;28;12672;-79
2021/11/28 08:03:52;;;;;;;;;0.00;0.00;;;;;;;;5044636;28;11787;-76
2021/11/28 08:06:20;;;;;;;;;1.00;1.00;;;;;;;;5033106;28;11497;-76
2021/11/28 08:08:47;;;;;;;;;0.75;0.75;;;;;;;;5025218;28;12309;-76
2021/11/28 08:11:15;;;;;;;;;0.00;0.00;;;;;;;;5017906;28;11613;-80
2021/11/28 08:13:43;;;;;;;;;1.75;0.50;;;;;;;;5027395;28;11503;-77
2021/11/28 08:16:10;;;;;;;;;2.00;0.00;;;;;;;;5007176;28;11520;-78
2021/11/28 08:18:39;;;;;;;;;2.00;2.00;;;;;;;;5027078;28;11498;-75
2021/11/28 08:21:08;;;;;;;;;0.00;0.00;;;;;;;;5018815;28;11506;-77
2021/11/28 08:23:37;;;;;;;;;0.25;0.25;;;;;;;;5018438;28;11615;-76
2021/11/28 08:26:04;;;;;;;;;0.00;0.00;;;;;;;;5017774;28;11489;-76
2021/11/28 08:28:31;;;;;;;;;5.00;2.50;;;;;;;;5014324;28;11548;-81
2021/11/28 08:30:59;;;;;;;;;2.00;0.00;;;;;;;;5021331;28;11480;-75
2021/11/28 08:33:26;;;;;;;;;0.00;0.00;;;;;;;;5019205;28;11484;-77
2021/11/28 08:35:54;;;;;;;;;1.75;1.00;;;;;;;;5017463;28;11495;-77
2021/11/28 08:38:23;;;;;;;;;2.00;2.00;;;;;;;;5020112;28;11485;-74
2021/11/28 08:40:50;;;;;;;;;0.00;0.00;;;;;;;;5022135;28;11511;-75
2021/11/28 08:43:17;;;;;;;;;1.00;1.00;;;;;;;;4999327;28;11668;-79
2021/11/28 08:45:45;;;;;;;;;4.00;2.00;;;;;;;;5015973;28;11537;-76
2021/11/28 08:48:13;;;;;;;;;0.00;0.00;;;;;;;;4995035;28;11515;-77
2021/11/28 08:50:40;;;;;;;;;1.25;1.25;;;;;;;;5018785;28;11475;-76
2021/11/28 08:53:08;;;;;;;;;2.00;0.75;;;;;;;;5020690;28;11624;-77
2021/11/28 08:55:37;;;;;;;;;1.00;1.00;;;;;;;;5019297;28;11512;-76
2021/11/28 08:58:05;;;;;;;;;1.25;1.00;;;;;;;;5015948;28;11522;-76
2021/11/28 09:00:32;;;;;;;;;1.25;1.25;;;;;;;;5021414;28;11456;-75
2021/11/28 09:03:00;;;;;;;;;1.00;1.00;;;;;;;;5003868;28;11506;-77
2021/11/28 09:05:28;;;;;;;;;2.00;2.00;;;;;;;;5017633;28;11516;-77
2021/11/28 09:07:57;;;;;;;;;1.00;1.00;;;;;;;;5031931;28;12374;-78
2021/11/28 09:10:24;;;;;;;;;0.00;0.00;;;;;;;;5013937;28;11565;-75
2021/11/28 09:12:53;;;;;;;;;5.50;1.50;;;;;;;;5038449;28;11627;-75
2021/11/28 09:15:21;;;;;;;;;0.25;0.25;;;;;;;;5036372;28;11595;-77
2021/11/28 09:17:52;;;;;;;;;1.00;1.00;;;;;;;;5033085;28;11654;-77
2021/11/28 09:20:22;;;;;;;;;0.00;0.00;;;;;;;;5038413;28;12428;-78
2021/11/28 09:25:34;;;;;;;;;1.00;1.00;;;;;;;;5031995;28;11635;-79
2021/11/28 09:28:05;;;;;;;;;1.00;1.00;;;;;;;;5035428;28;11583;-78
2021/11/28 09:30:33;;;;;;;;;2.00;1.00;;;;;;;;5040574;28;12340;-79
2021/11/28 09:33:02;;;;;;;;;8.50;8.00;;;;;;;;5040340;28;11569;-75
2021/11/28 09:35:30;;;;;;;;;2.50;2.50;;;;;;;;5043291;28;12131;-76
2021/11/28 09:37:58;;;;;;;;;2.00;1.00;;;;;;;;5042173;28;11565;-73
2021/11/28 09:40:25;;;;;;;;;2.00;2.00;;;;;;;;5043090;28;12289;-77
2021/11/28 09:42:55;;;;;;;;;6.75;5.75;;;;;;;;5053320;28;12431;-72
2021/11/28 09:45:26;;;;;;;;;8.50;8.50;;;;;;;;5043743;28;11768;-74
2021/11/28 09:47:56;;;;;;;;;4.50;4.50;;;;;;;;5040203;28;12133;-74
2021/11/28 09:50:24;;;;;;;;;3.00;3.00;;;;;;;;5014784;28;11613;-73
2021/11/28 09:52:52;;;;;;;;;11.75;8.00;;;;;;;;5040320;28;11608;-74
2021/11/28 09:55:21;;;;;;;;;2.50;2.50;;;;;;;;5041213;28;11549;-76
2021/11/28 09:57:48;;;;;;;;;1.00;1.00;;;;;;;;5022368;28;11559;-75
2021/11/28 10:00:20;;;;;;;;;1.00;1.00;;;;;;;;5048379;28;11510;-74
2021/11/28 10:02:49;;;;;;;;;1.75;1.50;;;;;;;;5047763;28;11562;-79
2021/11/28 10:05:17;;;;;;;;;1.25;1.00;;;;;;;;5034177;28;11548;-79
2021/11/28 10:07:45;;;;;;;;;1.00;1.00;;;;;;;;5043170;28;11612;-77
2021/11/28 10:10:13;;;;;;;;;3.00;3.00;;;;;;;;5043234;28;11535;-75
2021/11/28 10:12:44;;;;;;;;;2.50;1.00;;;;;;;;5044603;28;11745;-75
2021/11/28 10:15:15;;;;;;;;;1.50;1.00;;;;;;;;5041301;28;11546;-76
2021/11/28 10:17:43;;;;;;;;;1.75;1.00;;;;;;;;5038394;28;12399;-75
2021/11/28 10:20:13;;;;;;;;;0.50;0.25;;;;;;;;5038357;28;11716;-74
2021/11/28 10:22:41;;;;;;;;;2.00;2.00;;;;;;;;5044313;28;11577;-74
2021/11/28 10:25:15;;;;;;;;;0.00;0.00;;;;;;;;5024880;28;11522;-74
2021/11/28 10:27:46;;;;;;;;;4.75;4.75;;;;;;;;5041474;28;11557;-75
2021/11/28 10:30:16;;;;;;;;;1.00;1.00;;;;;;;;5043028;28;11544;-78
2021/11/28 10:32:45;;;;;;;;;0.00;0.00;;;;;;;;5039571;28;11586;-75
2021/11/28 10:35:14;;;;;;;;;4.25;2.50;;;;;;;;5041620;28;11527;-74
2021/11/28 10:37:43;;;;;;;;;4.50;2.00;;;;;;;;5041063;28;11671;-76
2021/11/28 10:40:12;;;;;;;;;3.00;3.00;;;;;;;;5042018;28;11574;-74
2021/11/28 10:42:40;;;;;;;;;1.25;1.25;;;;;;;;5035881;28;11532;-77
2021/11/28 10:45:13;;;;;;;;;8.75;3.00;;;;;;;;5028883;28;11625;-77
2021/11/28 10:47:43;;;;;;;;;2.00;2.00;;;;;;;;5037256;28;11580;-74
2021/11/28 10:50:15;;;;;;;;;2.00;2.00;;;;;;;;5027465;28;11638;-74
2021/11/28 10:52:44;;;;;;;;;3.50;3.50;;;;;;;;5019704;28;11602;-74
2021/11/28 10:55:17;;;;;;;;;0.50;0.50;;;;;;;;5027201;28;11550;-75
2021/11/28 10:57:45;;;;;;;;;3.50;3.50;;;;;;;;5032463;28;12408;-75
2021/11/28 11:00:14;;;;;;;;;4.00;2.50;;;;;;;;5039951;28;11631;-81
2021/11/28 11:02:42;;;;;;;;;1.75;1.75;;;;;;;;5042210;28;11584;-75
2021/11/28 11:05:12;;;;;;;;;1.00;1.00;;;;;;;;5032976;28;11577;-72
2021/11/28 11:07:46;;;;;;;;;8.00;5.00;;;;;;;;5024458;28;11582;-76
2021/11/28 11:10:19;;;;;;;;;1.00;1.00;;;;;;;;5038845;28;11696;-80
2021/11/28 11:12:46;;;;;;;;;5.00;2.00;;;;;;;;5021140;28;11538;-74
2021/11/28 11:15:16;;;;;;;;;4.50;4.00;;;;;;;;5031324;28;11581;-74
2021/11/28 11:17:57;;;;;;;;;2.00;2.00;;;;;;;;5038129;28;11605;-77
2021/11/28 11:20:26;;;;;;;;;1.00;1.00;;;;;;;;5042026;28;11585;-75
2021/11/28 11:22:55;;;;;;;;;1.75;1.75;;;;;;;;5047866;28;11567;-79
2021/11/28 11:25:32;;;;;;;;;5.25;2.00;;;;;;;;5019163;28;11549;-74
2021/11/28 11:28:12;;;;;;;;;2.00;2.00;;;;;;;;5038095;28;11644;-75
2021/11/28 11:30:39;;;;;;;;;10.00;6.00;;;;;;;;5046246;28;11494;-75
2021/11/28 11:33:08;;;;;;;;;2.00;2.00;;;;;;;;5041907;28;11573;-77
2021/11/28 11:35:42;;;;;;;;;5.50;4.75;;;;;;;;5040178;28;11570;-75
2021/11/28 11:38:13;;;;;;;;;4.00;4.00;;;;;;;;5040921;28;11550;-75
2021/11/28 11:40:41;;;;;;;;;3.00;3.00;;;;;;;;5042034;28;11573;-75
2021/11/28 11:43:09;;;;;;;;;5.75;2.00;;;;;;;;5039953;28;11594;-77
2021/11/28 11:45:38;;;;;;;;;5.75;2.00;;;;;;;;5036521;28;11650;-75
2021/11/28 11:48:07;;;;;;;;;3.00;3.00;;;;;;;;5037821;28;11619;-77
2021/11/28 11:50:36;;;;;;;;;3.00;3.00;;;;;;;;5035043;28;11608;-76
2021/11/28 11:53:04;;;;;;;;;4.75;2.00;;;;;;;;5041869;28;11572;-74
2021/11/28 11:55:39;;;;;;;;;4.25;2.00;;;;;;;;5026668;28;12335;-75
2021/11/28 11:58:19;;;;;;;;;2.00;2.00;;;;;;;;5034455;28;11563;-74
2021/11/28 12:00:56;;;;;;;;;5.00;4.00;;;;;;;;5036494;28;11508;-75
2021/11/28 12:03:23;;;;;;;;;1.50;1.50;;;;;;;;5033237;28;11594;-76
2021/11/28 12:05:52;;;;;;;;;4.00;4.00;;;;;;;;5036866;28;11622;-75
2021/11/28 12:08:27;;;;;;;;;4.50;2.50;;;;;;;;5021765;28;11569;-76
2021/11/28 12:11:11;;;;;;;;;4.00;1.50;;;;;;;;5018714;28;11533;-73
2021/11/28 12:13:55;;;;;;;;;2.25;2.25;;;;;;;;5016376;28;11493;-73
2021/11/28 12:16:26;;;;;;;;;1.50;1.50;;;;;;;;5014488;28;11658;-75
2021/11/28 12:18:55;;;;;;;;;2.75;2.00;;;;;;;;5016271;28;11752;-75
2021/11/28 12:21:38;;;;;;;;;1.50;1.50;;;;;;;;5017609;28;11519;-73
2021/11/28 12:24:09;;;;;;;;;2.00;2.00;;;;;;;;5023348;28;11495;-76
2021/11/28 12:26:57;;;;;;;;;5.00;5.00;;;;;;;;5029599;28;11570;-74
2021/11/28 12:29:43;;;;;;;;;4.00;2.00;;;;;;;;5021703;28;11512;-75
2021/11/28 12:32:22;;;;;;;;;4.50;4.50;;;;;;;;5027690;28;11454;-74
2021/11/28 12:34:54;;;;;;;;;6.00;2.00;;;;;;;;5016883;28;11532;-75
2021/11/28 12:37:24;;;;;;;;;1.50;1.50;;;;;;;;5020451;28;11628;-73
2021/11/28 12:39:52;;;;;;;;;3.00;3.00;;;;;;;;5025432;28;11595;-75
2021/11/28 12:42:23;;;;;;;;;3.50;2.00;;;;;;;;5009586;28;11499;-74
2021/11/28 12:45:00;;;;;;;;;4.50;4.50;;;;;;;;5025438;28;11488;-76
2021/11/28 12:47:28;;;;;;;;;3.75;3.75;;;;;;;;5018442;28;11538;-78
2021/11/28 12:49:58;;;;;;;;;2.50;1.00;;;;;;;;5017461;28;11545;-75
2021/11/28 12:52:46;;;;;;;;;2.50;2.50;;;;;;;;5023257;28;11532;-77
2021/11/28 12:55:23;;;;;;;;;3.75;1.75;;;;;;;;5006188;28;11515;-77
2021/11/28 12:58:09;;;;;;;;;1.00;1.00;;;;;;;;5025182;28;11534;-80
2021/11/28 13:00:39;;;;;;;;;2.00;2.00;;;;;;;;5016715;28;11534;-76
2021/11/28 13:03:28;;;;;;;;;8.00;4.00;;;;;;;;5021591;28;11552;-76
2021/11/28 13:05:56;;;;;;;;;5.00;1.25;;;;;;;;5013793;28;11591;-78
2021/11/28 13:08:38;;;;;;;;;8.00;2.00;;;;;;;;5041367;28;12493;-77
2021/11/28 13:11:10;;;;;;;;;1.00;1.00;;;;;;;;5043754;28;11599;-77
2021/11/28 13:13:40;;;;;;;;;6.00;5.00;;;;;;;;5041799;28;11547;-78
2021/11/28 13:16:10;;;;;;;;;1.00;1.00;;;;;;;;5045611;28;11632;-77
2021/11/28 13:18:40;;;;;;;;;2.50;1.75;;;;;;;;5043431;28;11565;-76
2021/11/28 13:21:10;;;;;;;;;0.00;0.00;;;;;;;;5031501;28;11567;-78
2021/11/28 13:23:41;;;;;;;;;4.00;4.00;;;;;;;;5050394;28;11559;-78
2021/11/28 13:26:09;;;;;;;;;3.50;3.50;;;;;;;;5043132;28;11566;-75
2021/11/28 13:28:40;;;;;;;;;0.00;0.00;;;;;;;;5036299;28;11569;-76
2021/11/28 13:31:12;;;;;;;;;1.00;1.00;;;;;;;;5017980;28;11481;-80
2021/11/28 13:33:53;;;;;;;;;1.50;1.50;;;;;;;;5032098;28;11560;-78
2021/11/28 13:36:21;;;;;;;;;1.25;1.25;;;;;;;;5020766;28;11691;-74
2021/11/28 13:38:50;;;;;;;;;1.50;1.50;;;;;;;;5035323;28;11604;-75
2021/11/28 13:41:21;;;;;;;;;1.00;1.00;;;;;;;;5038805;28;11553;-72
2021/11/28 13:43:53;;;;;;;;;1.00;1.00;;;;;;;;5032139;28;11568;-74
2021/11/28 13:46:22;;;;;;;;;2.00;2.00;;;;;;;;5041790;28;11578;-73
2021/11/28 13:48:53;;;;;;;;;1.25;1.25;;;;;;;;5051918;28;12462;-74
2021/11/28 13:51:42;;;;;;;;;1.75;1.00;;;;;;;;5040024;28;11589;-72
2021/11/28 13:54:11;;;;;;;;;2.00;2.00;;;;;;;;5041450;28;11712;-73
2021/11/28 13:56:59;;;;;;;;;4.75;4.00;;;;;;;;5046596;28;11544;-72
2021/11/28 13:59:31;;;;;;;;;2.00;2.00;;;;;;;;5040794;28;11636;-73
2021/11/28 14:02:09;;;;;;;;;2.00;1.00;;;;;;;;5031450;28;11516;-74
2021/11/28 14:04:37;;;;;;;;;5.00;2.50;;;;;;;;5038366;28;11550;-74
2021/11/28 14:07:11;;;;;;;;;2.50;2.50;;;;;;;;5038134;28;12427;-74
2021/11/28 14:09:41;;;;;;;;;4.00;2.00;;;;;;;;5035218;28;11545;-74
2021/11/28 14:12:12;;;;;;;;;8.25;3.00;;;;;;;;5039568;28;11501;-79
2021/11/28 14:14:49;;;;;;;;;4.00;4.00;;;;;;;;5036158;28;11617;-75
2021/11/28 14:17:16;;;;;;;;;2.00;2.00;;;;;;;;5041221;28;11579;-77
2021/11/28 14:19:44;;;;;;;;;2.00;2.00;;;;;;;;5031501;28;11633;-75
2021/11/28 14:22:33;;;;;;;;;4.00;2.00;;;;;;;;5039137;28;11516;-75
2021/11/28 14:25:24;;;;;;;;;1.75;1.75;;;;;;;;5032406;28;11725;-75
2021/11/28 14:28:10;;;;;;;;;1.00;1.00;;;;;;;;5021530;28;11549;-74
2021/11/28 14:30:40;;;;;;;;;2.00;2.00;;;;;;;;5028807;28;11497;-74
2021/11/28 14:33:09;;;;;;;;;4.75;1.00;;;;;;;;5034577;28;11693;-75
2021/11/28 14:35:37;;;;;;;;;4.00;1.75;;;;;;;;5026612;28;11549;-73
2021/11/28 14:38:11;;;;;;;;;2.75;1.75;;;;;;;;5037215;28;11541;-73
2021/11/28 14:40:40;;;;;;;;;3.25;1.00;;;;;;;;5024294;28;11640;-74
2021/11/28 14:43:08;;;;;;;;;1.00;1.00;;;;;;;;5039103;28;11630;-73
2021/11/28 14:45:36;;;;;;;;;0.50;0.50;;;;;;;;5033350;28;12331;-75
2021/11/28 14:48:19;;;;;;;;;4.75;4.00;;;;;;;;5035000;28;11499;-76
2021/11/28 14:50:54;;;;;;;;;1.75;1.75;;;;;;;;5036966;28;11546;-74
2021/11/28 14:53:23;;;;;;;;;4.75;3.00;;;;;;;;5039295;28;11550;-73
2021/11/28 14:55:52;;;;;;;;;1.00;1.00;;;;;;;;5043602;28;11591;-75
2021/11/28 14:58:37;;;;;;;;;5.00;3.75;;;;;;;;5038512;28;11504;-73
2021/11/28 15:01:17;;;;;;;;;2.75;1.00;;;;;;;;5028724;28;11541;-74
2021/11/28 15:04:19;;;;;;;;;1.50;0.25;;;;;;;;5030190;28;11471;-76